Time;durP1;ratioP1;P1;durP2;ratioP2;P2;SDS_P1;SDS_P2;PMS_P1;PMS_P2;Temp;Humidity;BMP_temperature;BMP_pressure;BME280_temperature;BME280_humidity;BME280_pressure;Samples;Min_cycle;Max_cycle;Signal;HPM_P1;HPM_P2
2023/07/12 00:00:29;;;;;;;;;3.75;3.75;;;;;;;;5078293;28;45288;-52
2023/07/12 00:02:58;;;;;;;;;3.80;3.80;;;;;;;;5078337;28;45442;-51
2023/07/12 00:05:26;;;;;;;;;3.40;3.40;;;;;;;;5077867;28;47396;-46
2023/07/12 00:07:51;;;;;;;;;3.00;3.00;;;;;;;;5078088;28;45295;-49
2023/07/12 00:10:18;;;;;;;;;4.00;4.00;;;;;;;;5078022;27;45200;-48
2023/07/12 00:12:44;;;;;;;;;5.00;3.20;;;;;;;;5078219;28;45483;-49
2023/07/12 00:15:11;;;;;;;;;4.75;3.00;;;;;;;;5077589;28;46124;-46
2023/07/12 00:17:36;;;;;;;;;5.40;3.80;;;;;;;;5077653;28;45467;-45
2023/07/12 00:20:03;;;;;;;;;2.00;2.00;;;;;;;;5078052;28;45867;-48
2023/07/12 00:22:28;;;;;;;;;2.80;2.80;;;;;;;;5077624;28;45534;-46
2023/07/12 00:24:53;;;;;;;;;3.00;3.00;;;;;;;;5077583;27;45995;-47
2023/07/12 00:27:18;;;;;;;;;3.25;3.25;;;;;;;;5077433;28;45388;-48
2023/07/12 00:29:44;;;;;;;;;3.00;3.00;;;;;;;;5077474;28;45298;-47
2023/07/12 00:32:09;;;;;;;;;3.25;1.75;;;;;;;;5078027;28;45303;-49
2023/07/12 00:34:34;;;;;;;;;2.50;2.50;;;;;;;;5077232;28;46313;-44
2023/07/12 00:36:59;;;;;;;;;3.25;3.25;;;;;;;;5077282;28;45347;-49
2023/07/12 00:39:24;;;;;;;;;4.50;2.25;;;;;;;;5077756;27;45212;-44
2023/07/12 00:41:52;;;;;;;;;3.00;3.00;;;;;;;;5077793;27;45265;-43
2023/07/12 00:44:26;;;;;;;;;3.40;3.40;;;;;;;;5077376;28;46149;-45
2023/07/12 00:46:56;;;;;;;;;4.60;3.20;;;;;;;;5059189;28;45212;-45
2023/07/12 00:49:22;;;;;;;;;4.60;3.20;;;;;;;;5059173;28;45318;-43
2023/07/12 00:51:59;;;;;;;;;2.00;2.00;;;;;;;;5077674;28;45310;-42
2023/07/12 00:54:26;;;;;;;;;2.00;2.00;;;;;;;;5077130;27;46078;-44
2023/07/12 00:56:51;;;;;;;;;2.80;2.60;;;;;;;;5076331;28;45211;-42
2023/07/12 00:59:21;;;;;;;;;2.00;2.00;;;;;;;;5077372;28;45588;-50
2023/07/12 01:01:48;;;;;;;;;3.00;1.60;;;;;;;;5077436;28;45373;-46
2023/07/12 01:04:21;;;;;;;;;3.00;2.80;;;;;;;;5076576;28;45447;-48
2023/07/12 01:06:49;;;;;;;;;2.40;1.80;;;;;;;;5077413;28;45479;-43
2023/07/12 01:09:16;;;;;;;;;3.20;2.00;;;;;;;;5059131;28;45670;-44
2023/07/12 01:11:42;;;;;;;;;2.40;2.00;;;;;;;;5077461;28;45215;-44
2023/07/12 01:14:11;;;;;;;;;6.50;4.00;;;;;;;;5076735;28;45964;-45
2023/07/12 01:16:37;;;;;;;;;3.40;3.40;;;;;;;;5077182;28;45287;-45
2023/07/12 01:19:03;;;;;;;;;3.60;2.80;;;;;;;;5059227;28;45341;-52
2023/07/12 01:21:31;;;;;;;;;3.00;3.00;;;;;;;;5077466;27;45467;-46
2023/07/12 01:23:56;;;;;;;;;4.00;2.00;;;;;;;;5076720;27;46459;-45
2023/07/12 01:26:41;;;;;;;;;3.50;1.25;;;;;;;;5077133;27;45296;-50
2023/07/12 01:29:07;;;;;;;;;0.80;0.80;;;;;;;;5077132;28;45383;-45
2023/07/12 01:31:33;;;;;;;;;2.00;2.00;;;;;;;;5076855;27;45351;-48
2023/07/12 01:33:59;;;;;;;;;1.80;1.80;;;;;;;;5076723;28;46181;-46
2023/07/12 01:36:24;;;;;;;;;3.00;2.25;;;;;;;;5076967;28;45294;-48
2023/07/12 01:38:51;;;;;;;;;1.00;1.00;;;;;;;;5077030;27;45455;-47
2023/07/12 01:41:16;;;;;;;;;0.60;0.60;;;;;;;;5077000;28;45339;-49
2023/07/12 01:43:42;;;;;;;;;2.25;1.00;;;;;;;;5076402;28;46839;-48
2023/07/12 01:46:07;;;;;;;;;2.00;2.00;;;;;;;;5076620;28;45327;-49
2023/07/12 01:48:32;;;;;;;;;0.75;0.75;;;;;;;;5076719;28;45426;-46
2023/07/12 01:50:58;;;;;;;;;4.00;2.25;;;;;;;;5076826;28;45327;-48
2023/07/12 01:53:24;;;;;;;;;3.80;2.00;;;;;;;;5076371;28;46259;-49
2023/07/12 01:55:49;;;;;;;;;2.25;2.00;;;;;;;;5076458;27;45545;-51
2023/07/12 01:58:14;;;;;;;;;1.00;1.00;;;;;;;;5076564;28;45340;-48
2023/07/12 02:00:39;;;;;;;;;2.00;1.75;;;;;;;;5076813;28;45474;-50
2023/07/12 02:03:05;;;;;;;;;2.00;2.00;;;;;;;;5076296;28;46319;-51
2023/07/12 02:05:30;;;;;;;;;1.00;1.00;;;;;;;;5076077;28;45239;-49
2023/07/12 02:07:56;;;;;;;;;2.00;2.00;;;;;;;;5077267;28;45286;-49
2023/07/12 02:10:23;;;;;;;;;1.00;1.00;;;;;;;;5080207;27;45223;-49
2023/07/12 02:12:48;;;;;;;;;2.80;1.40;;;;;;;;5079524;27;46912;-52
2023/07/12 02:15:13;;;;;;;;;1.25;1.00;;;;;;;;5079647;27;45342;-51
2023/07/12 02:17:39;;;;;;;;;2.25;1.00;;;;;;;;5080142;28;45298;-51
2023/07/12 02:20:05;;;;;;;;;0.75;0.75;;;;;;;;5061600;28;45615;-47
2023/07/12 02:22:33;;;;;;;;;1.00;1.00;;;;;;;;5079626;28;47447;-46
2023/07/12 02:24:58;;;;;;;;;0.00;0.00;;;;;;;;5079646;27;45297;-50
2023/07/12 02:27:23;;;;;;;;;0.00;0.00;;;;;;;;5079778;27;45359;-46
2023/07/12 02:29:48;;;;;;;;;2.00;0.00;;;;;;;;5079536;28;45579;-45
2023/07/12 02:32:13;;;;;;;;;0.00;0.00;;;;;;;;5079482;27;47089;-47
2023/07/12 02:34:39;;;;;;;;;0.00;0.00;;;;;;;;5079527;28;45283;-45
2023/07/12 02:37:04;;;;;;;;;0.00;0.00;;;;;;;;5079674;27;45370;-51
2023/07/12 02:39:29;;;;;;;;;3.00;1.00;;;;;;;;5079811;28;45363;-51
2023/07/12 02:41:54;;;;;;;;;0.00;0.00;;;;;;;;5079323;27;46323;-47
2023/07/12 02:44:21;;;;;;;;;0.75;0.00;;;;;;;;5079346;27;45268;-47
2023/07/12 02:46:46;;;;;;;;;0.00;0.00;;;;;;;;5079541;28;45282;-48
2023/07/12 02:49:12;;;;;;;;;0.00;0.00;;;;;;;;5079598;27;45212;-46
2023/07/12 02:51:37;;;;;;;;;0.25;0.25;;;;;;;;5079110;28;45327;-47
2023/07/12 02:54:02;;;;;;;;;0.00;0.00;;;;;;;;5078979;28;45644;-46
2023/07/12 02:56:27;;;;;;;;;0.00;0.00;;;;;;;;5079314;28;45247;-46
2023/07/12 02:58:53;;;;;;;;;0.25;0.00;;;;;;;;5079505;27;45374;-51
2023/07/12 03:01:18;;;;;;;;;0.00;0.00;;;;;;;;5060718;28;48614;-51
2023/07/12 03:03:43;;;;;;;;;1.25;1.25;;;;;;;;5078954;28;45269;-47
2023/07/12 03:06:09;;;;;;;;;1.00;1.00;;;;;;;;5079378;28;45316;-50
2023/07/12 03:08:35;;;;;;;;;0.40;0.00;;;;;;;;5079411;27;45303;-50
2023/07/12 03:11:01;;;;;;;;;0.25;0.00;;;;;;;;5078985;27;46635;-52
2023/07/12 03:13:27;;;;;;;;;0.00;0.00;;;;;;;;5078672;28;45331;-50
2023/07/12 03:15:52;;;;;;;;;0.00;0.00;;;;;;;;5078847;28;45358;-51
2023/07/12 03:18:17;;;;;;;;;0.00;0.00;;;;;;;;5078736;27;45382;-52
2023/07/12 03:20:42;;;;;;;;;0.00;0.00;;;;;;;;5078857;27;45452;-50
2023/07/12 03:23:08;;;;;;;;;0.50;0.00;;;;;;;;5078968;28;45375;-47
2023/07/12 03:25:33;;;;;;;;;0.00;0.00;;;;;;;;5078850;27;45358;-49
2023/07/12 03:27:58;;;;;;;;;0.00;0.00;;;;;;;;5079046;28;45365;-49
2023/07/12 03:30:24;;;;;;;;;0.00;0.00;;;;;;;;5078290;27;46285;-51
2023/07/12 03:32:49;;;;;;;;;1.00;0.00;;;;;;;;5078570;27;45348;-53
2023/07/12 03:35:14;;;;;;;;;0.00;0.00;;;;;;;;5078887;27;45317;-52
2023/07/12 03:37:39;;;;;;;;;0.00;0.00;;;;;;;;5078601;27;45390;-51
2023/07/12 03:40:05;;;;;;;;;0.00;0.00;;;;;;;;5078443;27;46156;-51
2023/07/12 03:42:30;;;;;;;;;0.00;0.00;;;;;;;;5078440;28;45414;-48
2023/07/12 03:44:56;;;;;;;;;0.00;0.00;;;;;;;;5078235;27;45342;-50
2023/07/12 03:47:21;;;;;;;;;0.00;0.00;;;;;;;;5079034;28;45281;-50
2023/07/12 03:49:46;;;;;;;;;1.00;1.00;;;;;;;;5077921;27;45449;-51
2023/07/12 03:52:11;;;;;;;;;2.25;1.00;;;;;;;;5078263;28;45432;-51
2023/07/12 03:54:36;;;;;;;;;1.00;1.00;;;;;;;;5078405;28;45362;-52
2023/07/12 03:57:02;;;;;;;;;0.00;0.00;;;;;;;;5078388;27;45193;-50
2023/07/12 03:59:27;;;;;;;;;0.00;0.00;;;;;;;;5077976;28;45999;-51
2023/07/12 04:01:52;;;;;;;;;0.50;0.50;;;;;;;;5077939;27;45338;-52
2023/07/12 04:04:17;;;;;;;;;0.75;0.75;;;;;;;;5078422;28;45374;-50
2023/07/12 04:06:43;;;;;;;;;0.25;0.25;;;;;;;;5078539;27;45286;-50
2023/07/12 04:09:08;;;;;;;;;0.75;0.75;;;;;;;;5059813;28;46310;-51
2023/07/12 04:11:37;;;;;;;;;1.50;0.25;;;;;;;;5078060;28;45631;-50
2023/07/12 04:14:02;;;;;;;;;0.60;0.60;;;;;;;;5077859;28;45324;-51
2023/07/12 04:16:28;;;;;;;;;1.25;0.75;;;;;;;;5078061;28;45298;-49
2023/07/12 04:18:53;;;;;;;;;2.25;0.50;;;;;;;;5077250;28;45379;-52
2023/07/12 04:21:18;;;;;;;;;1.00;1.00;;;;;;;;5077177;27;45302;-50
2023/07/12 04:23:45;;;;;;;;;1.25;1.00;;;;;;;;5078035;27;45450;-52
2023/07/12 04:26:11;;;;;;;;;0.80;0.60;;;;;;;;5077936;28;45458;-53
2023/07/12 04:28:38;;;;;;;;;2.00;0.50;;;;;;;;5077393;28;45723;-51
2023/07/12 04:31:04;;;;;;;;;0.00;0.00;;;;;;;;5076341;27;45235;-47
2023/07/12 04:33:30;;;;;;;;;2.00;1.00;;;;;;;;5077671;28;45409;-51
2023/07/12 04:35:55;;;;;;;;;1.25;1.25;;;;;;;;5077796;27;45838;-48
2023/07/12 04:38:20;;;;;;;;;1.00;1.00;;;;;;;;5077457;27;45294;-52
2023/07/12 04:40:55;;;;;;;;;3.25;0.50;;;;;;;;5077511;27;45394;-52
2023/07/12 04:43:20;;;;;;;;;0.60;0.60;;;;;;;;5077768;28;45406;-52
2023/07/12 04:45:46;;;;;;;;;0.25;0.25;;;;;;;;5077541;28;45728;-52
2023/07/12 04:48:12;;;;;;;;;1.00;1.00;;;;;;;;5077447;27;45393;-52
2023/07/12 04:50:37;;;;;;;;;2.25;1.50;;;;;;;;5077376;28;45370;-49
2023/07/12 04:53:03;;;;;;;;;1.50;0.50;;;;;;;;5077450;27;45373;-50
2023/07/12 04:55:28;;;;;;;;;1.00;1.00;;;;;;;;5077569;27;45313;-50
2023/07/12 04:57:54;;;;;;;;;0.50;0.50;;;;;;;;5077116;28;46911;-51
2023/07/12 05:00:19;;;;;;;;;1.00;0.50;;;;;;;;5077296;28;45425;-50
2023/07/12 05:02:46;;;;;;;;;2.00;1.00;;;;;;;;5077579;27;45310;-50
2023/07/12 05:05:12;;;;;;;;;1.80;1.80;;;;;;;;5077467;27;45390;-52
2023/07/12 05:07:37;;;;;;;;;4.00;2.00;;;;;;;;5077462;28;46262;-52
2023/07/12 05:10:03;;;;;;;;;4.00;1.50;;;;;;;;5077371;28;45232;-51
2023/07/12 05:12:28;;;;;;;;;0.80;0.80;;;;;;;;5077321;28;45410;-50
2023/07/12 05:14:54;;;;;;;;;3.00;1.75;;;;;;;;5077223;28;45589;-52
2023/07/12 05:17:19;;;;;;;;;1.50;1.50;;;;;;;;5076945;28;45435;-52
2023/07/12 05:19:44;;;;;;;;;1.00;1.00;;;;;;;;5077173;27;45295;-50
2023/07/12 05:22:09;;;;;;;;;4.00;2.50;;;;;;;;5077036;27;45216;-49
2023/07/12 05:24:34;;;;;;;;;2.00;2.00;;;;;;;;5077433;28;45314;-53
2023/07/12 05:26:59;;;;;;;;;1.25;1.25;;;;;;;;5076789;27;46223;-52
2023/07/12 05:29:25;;;;;;;;;1.75;1.00;;;;;;;;5076852;28;45216;-52
2023/07/12 05:31:50;;;;;;;;;1.00;1.00;;;;;;;;5077217;28;45667;-53
2023/07/12 05:34:15;;;;;;;;;1.50;1.00;;;;;;;;5077168;27;45317;-50
2023/07/12 05:36:41;;;;;;;;;3.00;1.25;;;;;;;;5076141;28;45365;-52
2023/07/12 05:39:06;;;;;;;;;3.75;3.00;;;;;;;;5076862;27;45292;-52
2023/07/12 05:41:31;;;;;;;;;4.50;2.00;;;;;;;;5077274;28;45336;-50
2023/07/12 05:43:56;;;;;;;;;1.50;1.50;;;;;;;;5080522;28;45311;-51
2023/07/12 05:46:22;;;;;;;;;2.25;1.25;;;;;;;;5080136;27;45344;-50
2023/07/12 05:48:47;;;;;;;;;2.25;1.00;;;;;;;;5080327;28;45296;-51
2023/07/12 05:51:12;;;;;;;;;2.00;1.75;;;;;;;;5080403;27;46132;-50
2023/07/12 05:53:37;;;;;;;;;2.00;2.00;;;;;;;;5080577;27;45465;-50
2023/07/12 05:56:04;;;;;;;;;1.25;1.00;;;;;;;;5080119;28;46228;-50
2023/07/12 05:58:29;;;;;;;;;1.80;1.00;;;;;;;;5080150;27;45463;-52
2023/07/12 06:00:58;;;;;;;;;6.75;2.75;;;;;;;;5080232;27;45481;-51
2023/07/12 06:03:23;;;;;;;;;3.00;2.00;;;;;;;;5079863;27;45267;-51
2023/07/12 06:05:48;;;;;;;;;2.75;1.00;;;;;;;;5079934;28;46361;-50
2023/07/12 06:08:14;;;;;;;;;2.00;2.00;;;;;;;;5080127;28;45246;-52
2023/07/12 06:10:39;;;;;;;;;1.00;1.00;;;;;;;;5080200;28;45200;-51
2023/07/12 06:13:04;;;;;;;;;1.00;1.00;;;;;;;;5080390;27;45390;-52
2023/07/12 06:15:29;;;;;;;;;6.00;1.00;;;;;;;;5079515;28;46282;-52
2023/07/12 06:17:54;;;;;;;;;3.00;2.25;;;;;;;;5079774;27;45421;-52
2023/07/12 06:20:20;;;;;;;;;3.00;1.75;;;;;;;;5080169;28;45310;-52
2023/07/12 06:22:45;;;;;;;;;3.00;2.50;;;;;;;;5080118;27;45333;-52
2023/07/12 06:25:10;;;;;;;;;0.75;0.75;;;;;;;;5080308;27;46553;-51
2023/07/12 06:27:35;;;;;;;;;3.75;1.50;;;;;;;;5098711;27;45389;-48
2023/07/12 06:30:01;;;;;;;;;2.75;1.00;;;;;;;;5099688;27;45559;-51
2023/07/12 06:32:27;;;;;;;;;0.50;0.50;;;;;;;;5100139;27;45499;-49
2023/07/12 06:34:52;;;;;;;;;4.00;1.75;;;;;;;;5099745;27;45389;-53
2023/07/12 06:37:17;;;;;;;;;1.75;0.50;;;;;;;;5100074;27;45506;-52
2023/07/12 06:39:42;;;;;;;;;4.00;2.00;;;;;;;;5099936;27;45315;-53
2023/07/12 06:42:08;;;;;;;;;3.50;2.00;;;;;;;;5100029;27;45244;-54
2023/07/12 06:44:33;;;;;;;;;1.75;1.75;;;;;;;;5099594;27;46054;-53
2023/07/12 06:46:58;;;;;;;;;1.25;1.25;;;;;;;;5099350;27;45373;-51
2023/07/12 06:49:23;;;;;;;;;3.50;2.00;;;;;;;;5100040;27;45370;-52
2023/07/12 06:51:49;;;;;;;;;3.75;2.00;;;;;;;;5099860;27;45268;-52
2023/07/12 06:54:15;;;;;;;;;3.25;2.00;;;;;;;;5098745;27;45431;-52
2023/07/12 06:56:40;;;;;;;;;1.00;1.00;;;;;;;;5099657;27;45367;-53
2023/07/12 06:59:06;;;;;;;;;1.00;1.00;;;;;;;;5099664;27;45375;-51
2023/07/12 07:01:31;;;;;;;;;0.75;0.75;;;;;;;;5099714;27;45442;-52
2023/07/12 07:03:56;;;;;;;;;0.75;0.75;;;;;;;;5099502;27;46310;-52
2023/07/12 07:06:21;;;;;;;;;2.25;0.75;;;;;;;;5099488;27;45216;-52
2023/07/12 07:08:47;;;;;;;;;3.00;1.50;;;;;;;;5099712;27;45293;-48
2023/07/12 07:11:12;;;;;;;;;1.75;1.00;;;;;;;;5098520;27;45541;-52
2023/07/12 07:13:38;;;;;;;;;3.00;3.00;;;;;;;;5099233;27;46333;-52
2023/07/12 07:16:03;;;;;;;;;1.75;1.00;;;;;;;;5099316;27;45330;-52
2023/07/12 07:18:28;;;;;;;;;3.00;2.00;;;;;;;;5099561;27;45311;-52
2023/07/12 07:20:54;;;;;;;;;2.00;0.75;;;;;;;;5099428;27;45337;-52
2023/07/12 07:23:19;;;;;;;;;3.00;1.00;;;;;;;;5099183;27;45516;-51
2023/07/12 07:25:45;;;;;;;;;4.25;2.75;;;;;;;;5098989;27;45339;-51
2023/07/12 07:28:10;;;;;;;;;3.25;3.00;;;;;;;;5099257;27;45203;-53
2023/07/12 07:30:36;;;;;;;;;3.75;2.00;;;;;;;;5099316;27;45462;-52
2023/07/12 07:33:01;;;;;;;;;2.25;2.25;;;;;;;;5097618;27;46115;-53
2023/07/12 07:35:26;;;;;;;;;2.00;1.50;;;;;;;;5098845;27;45405;-53
2023/07/12 07:37:52;;;;;;;;;2.75;0.50;;;;;;;;5099204;27;45341;-52
2023/07/12 07:40:17;;;;;;;;;1.00;1.00;;;;;;;;5099157;27;45779;-53
2023/07/12 07:42:43;;;;;;;;;1.00;1.00;;;;;;;;5098815;27;46330;-52
2023/07/12 07:45:09;;;;;;;;;1.75;0.50;;;;;;;;5098735;27;45251;-51
2023/07/12 07:47:34;;;;;;;;;1.20;0.60;;;;;;;;5098801;27;45258;-55
2023/07/12 07:50:00;;;;;;;;;1.00;1.00;;;;;;;;5080764;27;45523;-52
2023/07/12 07:52:25;;;;;;;;;1.25;0.75;;;;;;;;5098638;27;46118;-54
2023/07/12 07:54:50;;;;;;;;;2.50;2.00;;;;;;;;5098708;27;45433;-53
2023/07/12 07:57:15;;;;;;;;;1.00;1.00;;;;;;;;5098870;27;45253;-54
2023/07/12 07:59:40;;;;;;;;;0.25;0.25;;;;;;;;5098766;27;45434;-52
2023/07/12 08:02:08;;;;;;;;;2.00;2.00;;;;;;;;5098342;27;47322;-53
2023/07/12 08:04:33;;;;;;;;;3.80;1.00;;;;;;;;5098502;27;45464;-52
2023/07/12 08:06:59;;;;;;;;;1.25;1.00;;;;;;;;5098726;27;45218;-51
2023/07/12 08:09:24;;;;;;;;;0.75;0.75;;;;;;;;5098721;27;45252;-51
2023/07/12 08:11:49;;;;;;;;;4.00;1.00;;;;;;;;5098333;27;45553;-53
2023/07/12 08:14:14;;;;;;;;;3.75;0.75;;;;;;;;5098437;27;45449;-52
2023/07/12 08:16:40;;;;;;;;;2.00;1.00;;;;;;;;5097347;27;45380;-50
2023/07/12 08:19:05;;;;;;;;;1.00;1.00;;;;;;;;5098665;27;45267;-52
2023/07/12 08:21:31;;;;;;;;;1.75;0.00;;;;;;;;5098190;27;45287;-54
2023/07/12 08:23:56;;;;;;;;;2.50;0.00;;;;;;;;5098413;27;45407;-53
2023/07/12 08:26:21;;;;;;;;;1.00;1.00;;;;;;;;5098392;27;45405;-52
2023/07/12 08:28:47;;;;;;;;;0.25;0.25;;;;;;;;5098371;27;45480;-54
2023/07/12 08:31:12;;;;;;;;;1.25;0.50;;;;;;;;5097657;27;45373;-53
2023/07/12 08:33:37;;;;;;;;;0.00;0.00;;;;;;;;5096980;27;45371;-52
2023/07/12 08:36:03;;;;;;;;;0.20;0.20;;;;;;;;5098100;27;45398;-52
2023/07/12 08:38:31;;;;;;;;;0.25;0.25;;;;;;;;5097880;27;45572;-57
2023/07/12 08:40:57;;;;;;;;;0.00;0.00;;;;;;;;5096549;27;45314;-55
2023/07/12 08:43:24;;;;;;;;;1.80;0.40;;;;;;;;5097805;27;45234;-53
2023/07/12 08:45:52;;;;;;;;;1.80;0.00;;;;;;;;5096784;27;45231;-54
2023/07/12 08:48:19;;;;;;;;;0.00;0.00;;;;;;;;5098090;27;45370;-54
2023/07/12 08:50:45;;;;;;;;;2.80;1.00;;;;;;;;5097710;27;45655;-52
2023/07/12 08:53:12;;;;;;;;;2.40;2.40;;;;;;;;5097613;27;45288;-54
2023/07/12 08:55:38;;;;;;;;;1.40;1.40;;;;;;;;5097744;27;45380;-53
2023/07/12 08:58:13;;;;;;;;;0.00;0.00;;;;;;;;5097989;27;45216;-54
2023/07/12 09:00:39;;;;;;;;;0.60;0.60;;;;;;;;5097611;27;47221;-53
2023/07/12 09:03:04;;;;;;;;;1.00;1.00;;;;;;;;5097793;27;45346;-52
2023/07/12 09:05:30;;;;;;;;;0.00;0.00;;;;;;;;5097896;27;45309;-51
2023/07/12 09:07:59;;;;;;;;;0.75;0.75;;;;;;;;5097949;27;45301;-51
2023/07/12 09:10:29;;;;;;;;;1.00;0.80;;;;;;;;5097742;27;46238;-52
2023/07/12 09:12:56;;;;;;;;;2.60;1.40;;;;;;;;5097916;27;45435;-51
2023/07/12 09:15:22;;;;;;;;;0.80;0.80;;;;;;;;5097967;27;45413;-50
2023/07/12 09:17:47;;;;;;;;;0.50;0.50;;;;;;;;5098700;27;46104;-52
2023/07/12 09:20:29;;;;;;;;;1.50;1.00;;;;;;;;5099890;27;47265;-52
2023/07/12 09:22:55;;;;;;;;;0.20;0.20;;;;;;;;5100731;27;45445;-53
2023/07/12 09:25:22;;;;;;;;;1.00;1.00;;;;;;;;5101018;27;45356;-52
2023/07/12 09:27:48;;;;;;;;;2.60;0.80;;;;;;;;5101151;27;45335;-52
2023/07/12 09:30:18;;;;;;;;;1.00;1.00;;;;;;;;5100604;27;47117;-51
2023/07/12 09:32:45;;;;;;;;;0.60;0.60;;;;;;;;5100700;27;45384;-52
2023/07/12 09:35:40;;;;;;;;;1.20;0.80;;;;;;;;5099828;27;45430;-54
2023/07/12 09:38:09;;;;;;;;;1.60;1.60;;;;;;;;5033848;28;45375;-54
2023/07/12 09:40:39;;;;;;;;;0.40;0.00;;;;;;;;5034298;28;45510;-53
2023/07/12 09:43:13;;;;;;;;;0.40;0.40;;;;;;;;5034516;28;45409;-53
2023/07/12 09:45:39;;;;;;;;;0.00;0.00;;;;;;;;5034110;28;45456;-52
2023/07/12 09:48:20;;;;;;;;;2.25;0.00;;;;;;;;5033878;28;45504;-53
2023/07/12 09:50:56;;;;;;;;;1.00;1.00;;;;;;;;5034290;28;45867;-52
2023/07/12 09:53:30;;;;;;;;;2.00;0.00;;;;;;;;5034369;28;45490;-51
2023/07/12 09:56:01;;;;;;;;;1.00;1.00;;;;;;;;5034396;28;45690;-52
2023/07/12 09:58:50;;;;;;;;;0.20;0.20;;;;;;;;5034535;28;45419;-52
2023/07/12 10:01:27;;;;;;;;;1.00;0.80;;;;;;;;5028002;28;45588;-51
2023/07/12 10:03:56;;;;;;;;;0.00;0.00;;;;;;;;5034114;28;45451;-54
2023/07/12 10:06:40;;;;;;;;;0.00;0.00;;;;;;;;5034134;28;45381;-52
2023/07/12 10:09:08;;;;;;;;;0.00;0.00;;;;;;;;5034565;28;45639;-52
2023/07/12 10:11:38;;;;;;;;;0.00;0.00;;;;;;;;5033569;28;46880;-54
2023/07/12 10:14:08;;;;;;;;;1.40;0.40;;;;;;;;5054404;27;46781;-55
2023/07/12 10:16:36;;;;;;;;;0.80;0.80;;;;;;;;5100409;27;45305;-56
2023/07/12 10:19:16;;;;;;;;;0.00;0.00;;;;;;;;5100578;27;45448;-55
2023/07/12 10:21:41;;;;;;;;;1.20;1.20;;;;;;;;5100215;27;46208;-52
2023/07/12 10:24:10;;;;;;;;;1.00;1.00;;;;;;;;5100482;27;45448;-54
2023/07/12 10:26:36;;;;;;;;;1.00;1.00;;;;;;;;5100413;27;45436;-53
2023/07/12 10:29:05;;;;;;;;;2.00;1.00;;;;;;;;5099156;27;45409;-53
2023/07/12 10:31:33;;;;;;;;;1.20;1.20;;;;;;;;5077389;28;46370;-54
2023/07/12 10:34:17;;;;;;;;;1.40;0.00;;;;;;;;5079426;28;45450;-54
2023/07/12 10:36:43;;;;;;;;;0.00;0.00;;;;;;;;5079333;27;45425;-55
2023/07/12 10:39:10;;;;;;;;;0.00;0.00;;;;;;;;5079925;28;45371;-54
2023/07/12 10:41:41;;;;;;;;;0.40;0.40;;;;;;;;5079222;27;46368;-56
2023/07/12 10:44:08;;;;;;;;;1.40;0.40;;;;;;;;5079324;28;45463;-53
2023/07/12 10:46:41;;;;;;;;;1.80;0.40;;;;;;;;5079471;28;45354;-52
2023/07/12 10:49:13;;;;;;;;;0.80;0.80;;;;;;;;5079453;27;45601;-50
2023/07/12 10:51:40;;;;;;;;;0.60;0.60;;;;;;;;5079328;28;46184;-51
2023/07/12 10:54:25;;;;;;;;;0.80;0.80;;;;;;;;5079240;28;45264;-49
2023/07/12 10:56:52;;;;;;;;;2.80;1.60;;;;;;;;5079510;28;45285;-50
2023/07/12 10:59:33;;;;;;;;;3.40;1.00;;;;;;;;5079409;28;45471;-50
2023/07/12 11:02:04;;;;;;;;;1.80;0.60;;;;;;;;5079086;27;45438;-49
2023/07/12 11:04:29;;;;;;;;;1.00;1.00;;;;;;;;5079042;28;45452;-51
2023/07/12 11:06:57;;;;;;;;;0.00;0.00;;;;;;;;5079460;28;45384;-51
2023/07/12 11:09:22;;;;;;;;;1.00;1.00;;;;;;;;5079279;28;45748;-51
2023/07/12 11:11:50;;;;;;;;;0.25;0.25;;;;;;;;5079067;28;46256;-50
2023/07/12 11:14:18;;;;;;;;;1.00;1.00;;;;;;;;5078990;28;45373;-51
2023/07/12 11:16:45;;;;;;;;;2.20;0.80;;;;;;;;5078889;28;45234;-51
2023/07/12 11:19:30;;;;;;;;;3.80;0.60;;;;;;;;5079043;28;45338;-48
2023/07/12 11:21:58;;;;;;;;;0.40;0.40;;;;;;;;5078744;28;47676;-49
2023/07/12 11:24:23;;;;;;;;;0.40;0.40;;;;;;;;5078735;28;45327;-46
2023/07/12 11:26:58;;;;;;;;;2.00;0.00;;;;;;;;5079008;28;45222;-50
2023/07/12 11:29:24;;;;;;;;;1.00;0.00;;;;;;;;5079106;28;45363;-51
2023/07/12 11:31:56;;;;;;;;;1.00;1.00;;;;;;;;5096010;27;46886;-51
2023/07/12 11:34:23;;;;;;;;;1.00;1.00;;;;;;;;5098799;27;45420;-49
2023/07/12 11:36:52;;;;;;;;;0.60;0.60;;;;;;;;5098675;27;45322;-51
2023/07/12 11:39:18;;;;;;;;;0.00;0.00;;;;;;;;5098941;27;45345;-50
2023/07/12 11:41:52;;;;;;;;;2.80;0.80;;;;;;;;5098828;27;47200;-51
2023/07/12 11:44:18;;;;;;;;;1.00;1.00;;;;;;;;5098847;27;45393;-49
2023/07/12 11:46:43;;;;;;;;;0.75;0.75;;;;;;;;5099009;27;45414;-51
2023/07/12 11:49:13;;;;;;;;;1.00;1.00;;;;;;;;5099133;27;45377;-50
2023/07/12 11:51:40;;;;;;;;;2.40;1.20;;;;;;;;5080439;27;47103;-52
2023/07/12 11:54:22;;;;;;;;;2.80;0.80;;;;;;;;5098672;27;45497;-52
2023/07/12 11:56:49;;;;;;;;;1.00;1.00;;;;;;;;5098841;27;45309;-50
2023/07/12 11:59:16;;;;;;;;;2.00;0.00;;;;;;;;5099113;27;45335;-54
2023/07/12 12:01:42;;;;;;;;;1.80;0.00;;;;;;;;5098650;27;46352;-52
2023/07/12 12:04:07;;;;;;;;;2.60;1.40;;;;;;;;5098466;27;45456;-49
2023/07/12 12:06:33;;;;;;;;;2.00;2.00;;;;;;;;5098619;27;45329;-46
2023/07/12 12:08:58;;;;;;;;;1.25;1.00;;;;;;;;5098704;27;45394;-52
2023/07/12 12:11:25;;;;;;;;;2.50;1.25;;;;;;;;5098438;27;46279;-50
2023/07/12 12:13:52;;;;;;;;;1.80;1.80;;;;;;;;5098259;27;45414;-51
2023/07/12 12:16:20;;;;;;;;;1.40;1.20;;;;;;;;5098390;27;45252;-51
2023/07/12 12:18:58;;;;;;;;;2.40;0.80;;;;;;;;5098442;27;45331;-49
2023/07/12 12:21:24;;;;;;;;;1.00;1.00;;;;;;;;5098142;27;45358;-52
2023/07/12 12:23:54;;;;;;;;;3.50;1.50;;;;;;;;5098207;27;45314;-52
2023/07/12 12:26:24;;;;;;;;;1.00;1.00;;;;;;;;5080131;27;45275;-50
2023/07/12 12:28:55;;;;;;;;;2.00;2.00;;;;;;;;5098389;27;45235;-51
2023/07/12 12:31:22;;;;;;;;;1.60;1.60;;;;;;;;5097537;27;46342;-51
2023/07/12 12:33:48;;;;;;;;;1.20;1.20;;;;;;;;5097990;27;45359;-51
2023/07/12 12:36:19;;;;;;;;;1.60;1.60;;;;;;;;5098246;27;45341;-50
2023/07/12 12:38:54;;;;;;;;;1.00;1.00;;;;;;;;5097266;27;45588;-51
2023/07/12 12:41:20;;;;;;;;;2.40;0.80;;;;;;;;5097573;27;46550;-48
2023/07/12 12:44:18;;;;;;;;;3.00;1.00;;;;;;;;5097601;27;45279;-49
2023/07/12 12:46:44;;;;;;;;;2.40;2.40;;;;;;;;5035084;28;45539;-51
2023/07/12 12:49:17;;;;;;;;;1.00;1.00;;;;;;;;5034824;28;45542;-48
2023/07/12 12:51:42;;;;;;;;;0.80;0.00;;;;;;;;5031963;28;46549;-48
2023/07/12 12:54:08;;;;;;;;;4.00;1.25;;;;;;;;5032597;28;45546;-51
2023/07/12 12:56:34;;;;;;;;;1.00;1.00;;;;;;;;5034802;28;45453;-52
2023/07/12 12:59:00;;;;;;;;;4.00;1.00;;;;;;;;5034865;28;46113;-50
2023/07/12 13:01:25;;;;;;;;;3.75;2.00;;;;;;;;5032404;28;46274;-49
2023/07/12 13:03:51;;;;;;;;;3.00;2.00;;;;;;;;5034124;28;45403;-48
2023/07/12 13:06:18;;;;;;;;;3.20;1.80;;;;;;;;5034379;28;45357;-49
2023/07/12 13:08:43;;;;;;;;;0.20;0.20;;;;;;;;5034146;28;45575;-52
2023/07/12 13:11:09;;;;;;;;;1.50;1.00;;;;;;;;5034542;28;45377;-48
2023/07/12 13:13:34;;;;;;;;;0.50;0.50;;;;;;;;5034474;28;45279;-49
2023/07/12 13:15:59;;;;;;;;;1.00;1.00;;;;;;;;5034469;28;45354;-46
2023/07/12 13:18:25;;;;;;;;;0.00;0.00;;;;;;;;5034610;28;45228;-48
2023/07/12 13:20:52;;;;;;;;;0.75;0.75;;;;;;;;5034218;28;47062;-49
2023/07/12 13:23:18;;;;;;;;;0.40;0.40;;;;;;;;5091634;27;45222;-49
2023/07/12 13:25:50;;;;;;;;;4.00;1.00;;;;;;;;5097644;27;45425;-50
2023/07/12 13:28:15;;;;;;;;;2.80;1.80;;;;;;;;5097659;27;45456;-51
2023/07/12 13:30:40;;;;;;;;;2.00;2.00;;;;;;;;5097531;27;45311;-47
2023/07/12 13:33:14;;;;;;;;;0.75;0.75;;;;;;;;5097539;27;45192;-48
2023/07/12 13:35:40;;;;;;;;;2.20;0.40;;;;;;;;5097623;27;45234;-52
2023/07/12 13:38:09;;;;;;;;;0.50;0.50;;;;;;;;5097507;27;45290;-49
2023/07/12 13:40:35;;;;;;;;;2.20;1.00;;;;;;;;5096436;27;45411;-50
2023/07/12 13:43:00;;;;;;;;;0.50;0.00;;;;;;;;5097685;27;45432;-50
2023/07/12 13:45:26;;;;;;;;;0.75;0.75;;;;;;;;5097524;27;45378;-47
2023/07/12 13:47:52;;;;;;;;;2.50;1.75;;;;;;;;5097462;27;45277;-45
2023/07/12 13:50:18;;;;;;;;;0.60;0.60;;;;;;;;5096957;27;46024;-47
2023/07/12 13:52:44;;;;;;;;;2.20;0.60;;;;;;;;5097088;27;45374;-47
2023/07/12 13:55:13;;;;;;;;;0.75;0.75;;;;;;;;5096982;27;45456;-47
2023/07/12 13:57:38;;;;;;;;;0.80;0.80;;;;;;;;5097302;27;45367;-47
2023/07/12 14:00:11;;;;;;;;;3.00;2.25;;;;;;;;5096805;27;45406;-47
2023/07/12 14:02:37;;;;;;;;;2.00;1.20;;;;;;;;5097693;27;45437;-48
2023/07/12 14:05:04;;;;;;;;;1.00;0.25;;;;;;;;5100671;27;45456;-48
2023/07/12 14:07:30;;;;;;;;;1.00;1.00;;;;;;;;5100586;27;45394;-47
2023/07/12 14:09:56;;;;;;;;;0.60;0.60;;;;;;;;5100512;27;46554;-44
2023/07/12 14:12:23;;;;;;;;;1.50;1.00;;;;;;;;5100304;27;45899;-44
2023/07/12 14:14:48;;;;;;;;;0.80;0.80;;;;;;;;5100338;27;45214;-48
2023/07/12 14:17:15;;;;;;;;;0.50;0.00;;;;;;;;5100542;27;45330;-47
2023/07/12 14:19:41;;;;;;;;;1.20;1.20;;;;;;;;5100120;27;45471;-48
2023/07/12 14:22:13;;;;;;;;;1.60;1.60;;;;;;;;5100371;27;45379;-46
2023/07/12 14:24:38;;;;;;;;;2.60;1.80;;;;;;;;5100387;27;45236;-48
2023/07/12 14:27:04;;;;;;;;;1.00;1.00;;;;;;;;5100561;27;45430;-47
2023/07/12 14:29:29;;;;;;;;;2.50;1.00;;;;;;;;5100039;27;46005;-47
2023/07/12 14:31:54;;;;;;;;;1.75;1.75;;;;;;;;5099967;27;45464;-50
2023/07/12 14:34:20;;;;;;;;;0.25;0.00;;;;;;;;5100030;27;45168;-49
2023/07/12 14:36:45;;;;;;;;;2.00;2.00;;;;;;;;5100324;27;45250;-49
2023/07/12 14:39:10;;;;;;;;;1.50;1.50;;;;;;;;5099877;27;46164;-50
2023/07/12 14:41:40;;;;;;;;;2.75;0.75;;;;;;;;5100073;27;45253;-49